createdAt,value
2018-11-25T00:00:25.121Z,23.80
2018-11-25T00:02:52.820Z,25.52
2018-11-25T00:05:20.470Z,24.57
2018-11-25T00:07:48.180Z,26.37
2018-11-25T00:10:16.752Z,25.43
2018-11-25T00:12:44.519Z,25.23
2018-11-25T00:15:12.948Z,25.50
2018-11-25T00:17:42.345Z,25.37
2018-11-25T00:20:11.259Z,25.90
2018-11-25T00:22:38.934Z,25.48
2018-11-25T00:25:08.890Z,24.03
2018-11-25T00:27:39.319Z,24.50
2018-11-25T00:30:12.719Z,24.47
2018-11-25T00:32:40.767Z,25.40
2018-11-25T00:35:10.535Z,25.65
2018-11-25T00:37:38.239Z,26.50
2018-11-25T00:40:07.960Z,26.77
2018-11-25T00:42:35.574Z,27.07
2018-11-25T00:45:05.052Z,27.82
2018-11-25T00:47:33.288Z,28.25
2018-11-25T00:50:01.507Z,28.57
2018-11-25T00:52:34.238Z,27.52
2018-11-25T00:55:03.379Z,28.97
2018-11-25T00:57:32.642Z,28.98
2018-11-25T01:00:01.699Z,29.10
2018-11-25T01:02:30.452Z,31.12
2018-11-25T01:04:58.734Z,31.60
2018-11-25T01:07:27.904Z,31.87
2018-11-25T01:09:56.208Z,32.03
2018-11-25T01:12:24.932Z,31.23
2018-11-25T01:14:52.660Z,32.28
2018-11-25T01:17:20.234Z,32.20
2018-11-25T01:19:47.934Z,32.80
2018-11-25T01:22:15.515Z,32.53
2018-11-25T01:24:44.306Z,33.15
2018-11-25T01:27:12.003Z,34.57
2018-11-25T01:29:40.229Z,33.28
2018-11-25T01:32:07.923Z,32.38
2018-11-25T01:34:36.568Z,33.02
2018-11-25T01:37:07.817Z,33.35
2018-11-25T01:39:36.173Z,31.45
2018-11-25T01:42:05.105Z,30.68
2018-11-25T01:44:34.176Z,32.03
2018-11-25T01:47:02.346Z,32.13
2018-11-25T01:49:30.009Z,32.10
2018-11-25T01:51:57.623Z,32.03
2018-11-25T01:54:25.272Z,32.40
2018-11-25T01:56:53.592Z,31.85
2018-11-25T01:59:21.183Z,30.60
2018-11-25T02:01:48.741Z,29.98
2018-11-25T02:04:16.383Z,30.82
2018-11-25T02:06:44.009Z,30.48
2018-11-25T02:09:11.651Z,31.65
2018-11-25T02:11:39.215Z,31.55
2018-11-25T02:14:08.086Z,29.35
2018-11-25T02:16:35.775Z,29.70
2018-11-25T02:19:04.102Z,31.27
2018-11-25T02:21:32.664Z,29.65
2018-11-25T02:24:02.419Z,30.32
2018-11-25T02:26:31.725Z,32.67
2018-11-25T02:29:01.897Z,31.25
2018-11-25T02:31:33.771Z,32.42
2018-11-25T02:34:03.296Z,31.80
2018-11-25T02:36:30.945Z,31.73
2018-11-25T02:38:58.566Z,31.07
2018-11-25T02:41:26.242Z,31.87
2018-11-25T02:43:53.891Z,33.02
2018-11-25T02:46:21.475Z,33.23
2018-11-25T02:48:49.693Z,30.68
2018-11-25T02:51:17.378Z,32.65
2018-11-25T02:53:45.513Z,34.13
2018-11-25T02:56:13.705Z,34.55
2018-11-25T02:58:41.533Z,33.38
2018-11-25T03:01:09.885Z,34.67
2018-11-25T03:03:37.498Z,35.63
2018-11-25T03:06:06.260Z,34.45
2018-11-25T03:08:33.958Z,34.58
2018-11-25T03:11:01.628Z,33.95
2018-11-25T03:13:29.306Z,33.40
2018-11-25T03:15:57.952Z,36.40
2018-11-25T03:18:25.537Z,36.23
2018-11-25T03:20:53.220Z,33.88
2018-11-25T03:23:21.579Z,35.00
2018-11-25T03:25:49.981Z,35.65
2018-11-25T03:28:17.570Z,34.63
2018-11-25T03:30:45.204Z,35.28
2018-11-25T03:33:13.796Z,34.35
2018-11-25T03:35:41.500Z,33.92
2018-11-25T03:38:09.727Z,34.10
2018-11-25T03:40:37.813Z,33.30
2018-11-25T03:43:06.302Z,34.73
2018-11-25T03:45:33.950Z,34.15
2018-11-25T03:48:01.591Z,33.67
2018-11-25T03:50:29.869Z,35.52
2018-11-25T03:52:57.487Z,35.13
2018-11-25T03:55:25.051Z,33.73
2018-11-25T03:57:52.754Z,34.08
2018-11-25T04:00:21.455Z,33.88
2018-11-25T04:02:50.815Z,32.50
2018-11-25T04:05:17.784Z,32.17
2018-11-25T04:07:44.723Z,33.18
2018-11-25T04:10:12.740Z,32.58
2018-11-25T04:12:39.665Z,31.70
2018-11-25T04:15:08.735Z,32.67
2018-11-25T04:17:35.661Z,31.93
2018-11-25T04:20:02.615Z,31.87
2018-11-25T04:22:29.529Z,32.08
2018-11-25T04:24:56.461Z,33.13
2018-11-25T04:27:23.423Z,32.40
2018-11-25T04:29:50.365Z,33.17
2018-11-25T04:32:17.279Z,32.38
2018-11-25T04:34:44.186Z,32.83
2018-11-25T04:37:11.109Z,32.05
2018-11-25T04:39:38.029Z,32.47
2018-11-25T04:42:05.050Z,33.50
2018-11-25T04:44:31.958Z,34.58
2018-11-25T04:46:58.865Z,35.13
2018-11-25T04:49:25.761Z,34.75
2018-11-25T04:51:52.686Z,35.85
2018-11-25T04:54:19.724Z,32.85
2018-11-25T04:56:46.631Z,34.75
2018-11-25T04:59:13.529Z,34.88
2018-11-25T05:01:40.448Z,34.23
2018-11-25T05:04:07.365Z,33.67
2018-11-25T05:06:34.281Z,33.25
2018-11-25T05:09:01.205Z,34.58
2018-11-25T05:11:28.139Z,36.00
2018-11-25T05:13:55.029Z,36.75
2018-11-25T05:16:21.949Z,35.52
2018-11-25T05:18:48.854Z,38.08
2018-11-25T05:21:15.792Z,38.35
2018-11-25T05:23:42.693Z,37.90
2018-11-25T05:26:09.612Z,39.88
2018-11-25T05:28:36.543Z,38.33
2018-11-25T05:31:03.521Z,37.78
2018-11-25T05:33:30.470Z,38.17
2018-11-25T05:35:57.389Z,38.48
2018-11-25T05:38:24.308Z,38.50
2018-11-25T05:40:51.222Z,37.90
2018-11-25T05:43:18.141Z,36.93
2018-11-25T05:45:45.038Z,39.38
2018-11-25T05:48:11.963Z,37.65
2018-11-25T05:50:38.899Z,37.98
2018-11-25T05:53:05.812Z,39.27
2018-11-25T05:55:32.729Z,39.48
2018-11-25T05:57:59.649Z,38.35
2018-11-25T06:00:31.282Z,39.27
2018-11-25T06:02:58.220Z,39.10
2018-11-25T06:05:25.128Z,37.67
2018-11-25T06:07:52.066Z,37.20
2018-11-25T06:10:18.967Z,37.08
2018-11-25T06:12:52.664Z,35.58
2018-11-25T06:15:19.591Z,37.90
2018-11-25T06:17:46.538Z,37.88
2018-11-25T06:20:16.182Z,38.55
2018-11-25T06:22:43.254Z,35.88
2018-11-25T06:25:11.454Z,35.63
2018-11-25T06:27:38.616Z,36.03
2018-11-25T06:30:08.682Z,36.93
2018-11-25T06:32:35.608Z,34.18
2018-11-25T06:35:02.531Z,37.10
2018-11-25T06:37:29.445Z,34.80
2018-11-25T06:39:56.358Z,35.15
2018-11-25T06:42:23.269Z,35.85
2018-11-25T06:44:50.178Z,34.95
2018-11-25T06:47:17.105Z,33.67
2018-11-25T06:49:44.020Z,34.83
2018-11-25T06:52:10.947Z,31.95
2018-11-25T06:54:37.860Z,33.55
2018-11-25T06:57:04.808Z,33.70
2018-11-25T06:59:32.568Z,33.98
2018-11-25T07:01:59.446Z,35.17
2018-11-25T07:04:26.364Z,33.08
2018-11-25T07:06:53.277Z,32.33
2018-11-25T07:09:20.185Z,31.00
2018-11-25T07:11:47.094Z,32.48
2018-11-25T07:14:14.009Z,30.75
2018-11-25T07:16:40.913Z,29.85
2018-11-25T07:19:07.853Z,29.40
2018-11-25T07:21:34.768Z,28.80
2018-11-25T07:24:01.692Z,27.75
2018-11-25T07:26:28.633Z,28.67
2018-11-25T07:28:55.552Z,26.87
2018-11-25T07:31:22.455Z,27.80
2018-11-25T07:33:49.365Z,28.40
2018-11-25T07:36:16.266Z,27.70
2018-11-25T07:38:43.173Z,27.77
2018-11-25T07:41:10.081Z,27.93
2018-11-25T07:43:36.997Z,26.83
2018-11-25T07:46:04.221Z,28.27
2018-11-25T07:48:31.133Z,28.00
2018-11-25T07:50:58.030Z,27.22
2018-11-25T07:53:24.967Z,28.95
2018-11-25T07:55:51.869Z,28.97
2018-11-25T07:58:18.801Z,29.27
2018-11-25T08:00:45.703Z,28.23
2018-11-25T08:03:12.623Z,30.27
2018-11-25T08:05:39.529Z,29.63
2018-11-25T08:08:06.470Z,30.50
2018-11-25T08:10:33.386Z,30.32
2018-11-25T08:13:00.310Z,30.50
2018-11-25T08:15:27.246Z,32.23
2018-11-25T08:17:54.153Z,31.50
2018-11-25T08:20:21.578Z,33.53
2018-11-25T08:22:48.671Z,30.90
2018-11-25T08:25:17.365Z,27.70
2018-11-25T08:27:44.293Z,28.12
2018-11-25T08:30:15.366Z,27.90
2018-11-25T08:32:42.289Z,26.60
2018-11-25T08:35:09.753Z,26.95
2018-11-25T08:37:36.793Z,25.10
2018-11-25T08:40:07.034Z,23.87
2018-11-25T08:42:33.953Z,23.07
2018-11-25T08:45:00.866Z,23.65
2018-11-25T08:47:27.781Z,22.62
2018-11-25T08:49:54.703Z,22.65
2018-11-25T08:52:21.611Z,20.32
2018-11-25T08:54:48.518Z,21.68
2018-11-25T08:57:15.433Z,20.80
2018-11-25T08:59:42.381Z,19.27
2018-11-25T09:02:09.449Z,19.48
2018-11-25T09:04:36.582Z,17.57
2018-11-25T09:07:03.569Z,19.82
2018-11-25T09:09:30.813Z,19.57
2018-11-25T09:11:57.761Z,18.48
2018-11-25T09:14:24.742Z,18.50
2018-11-25T09:16:51.662Z,18.45
2018-11-25T09:19:18.581Z,18.87
2018-11-25T09:21:45.477Z,19.60
2018-11-25T09:24:12.432Z,16.77
2018-11-25T09:26:39.435Z,17.70
2018-11-25T09:29:06.504Z,17.20
2018-11-25T09:31:33.430Z,15.95
2018-11-25T09:34:00.334Z,15.93
2018-11-25T09:36:27.490Z,15.20
2018-11-25T09:38:54.386Z,15.07
2018-11-25T09:41:22.258Z,14.28
2018-11-25T09:43:50.640Z,15.03
2018-11-25T09:46:17.561Z,15.40
2018-11-25T09:48:44.689Z,15.90
2018-11-25T09:51:11.890Z,15.03
2018-11-25T09:53:38.802Z,14.60
2018-11-25T09:56:06.157Z,15.68
2018-11-25T09:58:33.045Z,17.20
2018-11-25T10:00:59.966Z,15.90
2018-11-25T10:03:27.079Z,18.07
2018-11-25T10:05:53.998Z,16.87
2018-11-25T10:08:20.921Z,18.43
2018-11-25T10:10:52.641Z,19.47
2018-11-25T10:13:14.966Z,21.70
2018-11-25T10:15:41.881Z,20.15
2018-11-25T10:18:08.793Z,23.62
2018-11-25T10:20:35.719Z,23.50
2018-11-25T10:23:02.679Z,21.20
2018-11-25T10:25:29.640Z,18.77
2018-11-25T10:27:56.596Z,19.20
2018-11-25T10:30:25.557Z,20.67
2018-11-25T10:32:54.555Z,22.17
2018-11-25T10:35:21.472Z,22.10
2018-11-25T10:37:48.381Z,19.50
2018-11-25T10:40:16.433Z,23.20
2018-11-25T10:42:43.455Z,18.93
2018-11-25T10:45:11.501Z,21.93
2018-11-25T10:47:38.573Z,23.17
2018-11-25T10:50:07.811Z,23.63
2018-11-25T10:52:34.713Z,27.20
2018-11-25T10:55:01.706Z,25.70
2018-11-25T10:57:28.649Z,25.33
2018-11-25T10:59:55.562Z,26.70
2018-11-25T11:02:28.272Z,24.53
2018-11-25T11:05:06.064Z,26.77
2018-11-25T11:07:39.654Z,26.90
2018-11-25T11:10:08.148Z,27.67
2018-11-25T11:12:35.133Z,31.33
2018-11-25T11:15:03.215Z,34.57
2018-11-25T11:17:30.611Z,30.03
2018-11-25T11:19:57.541Z,28.00
2018-11-25T11:22:24.451Z,27.27
2018-11-25T11:24:51.366Z,26.07
2018-11-25T11:27:18.316Z,28.10
2018-11-25T11:29:45.208Z,27.80
2018-11-25T11:32:12.121Z,25.40
2018-11-25T11:34:39.088Z,28.03
2018-11-25T11:37:06.047Z,26.63
2018-11-25T11:39:32.946Z,27.90
2018-11-25T11:41:59.874Z,25.80
2018-11-25T11:44:27.229Z,27.13
2018-11-25T11:46:54.143Z,24.97
2018-11-25T11:49:21.050Z,23.40
2018-11-25T11:51:47.982Z,26.33
2018-11-25T11:54:14.881Z,24.30
2018-11-25T11:56:41.787Z,25.63
2018-11-25T11:59:08.693Z,25.70
2018-11-25T12:01:36.199Z,25.33
2018-11-25T12:04:03.157Z,27.27
2018-11-25T12:06:30.090Z,24.57
2018-11-25T12:08:56.978Z,32.47
2018-11-25T12:11:23.889Z,50.10
2018-11-25T12:13:50.791Z,29.67
2018-11-25T12:16:17.709Z,25.70
2018-11-25T12:18:44.617Z,26.20
2018-11-25T12:21:11.520Z,22.63
2018-11-25T12:23:38.423Z,22.57
2018-11-25T12:26:05.384Z,21.97
2018-11-25T12:28:32.307Z,23.27
2018-11-25T12:30:59.408Z,25.33
2018-11-25T12:33:26.330Z,24.27
2018-11-25T12:35:53.226Z,23.50
2018-11-25T12:38:20.180Z,25.33
2018-11-25T12:40:47.092Z,25.43
2018-11-25T12:43:15.743Z,24.77
2018-11-25T12:45:42.690Z,24.60
2018-11-25T12:48:09.605Z,24.40
2018-11-25T12:50:36.539Z,27.60
2018-11-25T12:53:03.492Z,24.20
2018-11-25T12:55:30.390Z,26.80
2018-11-25T12:57:57.313Z,23.10
2018-11-25T13:00:31.691Z,24.47
2018-11-25T13:02:58.613Z,27.27
2018-11-25T13:05:25.570Z,32.93
2018-11-25T13:07:52.484Z,30.60
2018-11-25T13:10:19.398Z,33.27
2018-11-25T13:12:46.645Z,36.80
2018-11-25T13:15:13.590Z,27.63
2018-11-25T13:17:40.526Z,25.93
2018-11-25T13:20:11.245Z,33.63
2018-11-25T13:22:38.462Z,30.10
2018-11-25T13:25:06.941Z,30.53
2018-11-25T13:27:33.873Z,31.73
2018-11-25T13:30:08.957Z,32.03
2018-11-25T13:32:35.881Z,27.77
2018-11-25T13:35:03.283Z,27.73
2018-11-25T13:37:30.259Z,30.47
2018-11-25T13:39:57.207Z,27.10
2018-11-25T13:42:24.185Z,27.07
2018-11-25T13:44:50.210Z,42.53
2018-11-25T13:47:17.163Z,31.37
2018-11-25T13:49:44.113Z,29.73
2018-11-25T13:52:11.022Z,34.33
2018-11-25T13:54:37.995Z,32.63
2018-11-25T13:57:06.165Z,37.83
2018-11-25T14:00:38.662Z,30.23
2018-11-25T14:03:08.085Z,31.90
2018-11-25T14:05:35.038Z,33.47
2018-11-25T14:08:01.966Z,34.37
2018-11-25T14:10:30.823Z,34.13
2018-11-25T14:12:57.749Z,35.30
2018-11-25T14:15:25.197Z,34.60
2018-11-25T14:17:52.564Z,33.83
2018-11-25T14:20:19.477Z,36.33
2018-11-25T14:22:46.683Z,37.17
2018-11-25T14:25:15.381Z,41.63
2018-11-25T14:27:42.729Z,44.37
2018-11-25T14:30:13.458Z,38.03
2018-11-25T14:32:38.657Z,47.07
2018-11-25T14:35:07.777Z,62.50
2018-11-25T14:37:34.701Z,74.23
2018-11-25T14:40:01.596Z,46.90
2018-11-25T14:42:28.533Z,40.77
2018-11-25T14:44:55.456Z,37.00
2018-11-25T14:47:22.363Z,38.73
2018-11-25T14:49:49.305Z,34.47
2018-11-25T14:52:16.194Z,34.30
2018-11-25T14:54:51.018Z,41.37
2018-11-25T14:57:10.057Z,37.23
2018-11-25T14:59:36.973Z,37.63
2018-11-25T15:02:03.922Z,34.07
2018-11-25T15:04:36.040Z,31.47
2018-11-25T15:06:57.762Z,36.63
2018-11-25T15:09:24.672Z,32.87
2018-11-25T15:11:51.594Z,33.93
2018-11-25T15:14:18.521Z,33.67
2018-11-25T15:16:45.455Z,29.80
2018-11-25T15:19:12.365Z,29.97
2018-11-25T15:21:39.273Z,29.20
2018-11-25T15:24:06.221Z,28.23
2018-11-25T15:26:33.134Z,35.33
2018-11-25T15:29:00.061Z,39.80
2018-11-25T15:31:26.976Z,41.20
2018-11-25T15:33:53.890Z,42.77
2018-11-25T15:36:20.791Z,39.73
2018-11-25T15:38:47.714Z,35.07
2018-11-25T15:41:21.513Z,33.43
2018-11-25T15:43:48.417Z,34.03
2018-11-25T15:46:15.334Z,32.67
2018-11-25T15:48:42.270Z,33.40
2018-11-25T15:51:09.223Z,35.77
2018-11-25T15:53:36.158Z,35.40
2018-11-25T15:56:06.243Z,31.57
2018-11-25T15:58:33.190Z,30.10
2018-11-25T16:01:00.129Z,31.23
2018-11-25T16:03:28.009Z,34.27
2018-11-25T16:05:59.399Z,31.63
2018-11-25T16:08:26.350Z,28.97
2018-11-25T16:10:53.269Z,31.77
2018-11-25T16:13:20.214Z,31.07
2018-11-25T16:15:47.149Z,32.23
2018-11-25T16:18:14.053Z,28.80
2018-11-25T16:20:40.990Z,29.73
2018-11-25T16:23:09.112Z,31.53
2018-11-25T16:25:40.458Z,31.17
2018-11-25T16:28:13.449Z,34.83
2018-11-25T16:30:41.279Z,33.80
2018-11-25T16:33:08.189Z,31.67
2018-11-25T16:35:35.113Z,32.13
2018-11-25T16:38:02.020Z,33.27
2018-11-25T16:40:28.954Z,31.20
2018-11-25T16:42:55.865Z,27.23
2018-11-25T16:45:22.788Z,30.53
2018-11-25T16:47:49.697Z,30.60
2018-11-25T16:50:24.951Z,29.70
2018-11-25T16:52:44.261Z,30.97
2018-11-25T16:55:12.395Z,29.77
2018-11-25T16:57:39.419Z,28.73
2018-11-25T17:00:11.571Z,30.80
2018-11-25T17:02:38.498Z,32.80
2018-11-25T17:05:07.696Z,29.37
2018-11-25T17:07:34.604Z,28.33
2018-11-25T17:10:01.534Z,27.63
2018-11-25T17:12:28.435Z,25.73
2018-11-25T17:14:55.338Z,31.40
2018-11-25T17:17:22.258Z,33.40
2018-11-25T17:19:49.166Z,38.90
2018-11-25T17:22:16.690Z,30.80
2018-11-25T17:24:43.002Z,36.63
2018-11-25T17:27:09.930Z,38.73
2018-11-25T17:29:36.846Z,35.00
2018-11-25T17:32:04.018Z,36.73
2018-11-25T17:34:30.930Z,28.93
2018-11-25T17:36:57.897Z,27.83
2018-11-25T17:39:24.806Z,30.10
2018-11-25T17:41:51.728Z,25.13
2018-11-25T17:44:18.645Z,31.33
2018-11-25T17:46:45.569Z,31.57
2018-11-25T17:49:12.479Z,25.83
2018-11-25T17:51:39.402Z,25.03
2018-11-25T17:54:06.318Z,29.80
2018-11-25T17:56:33.233Z,37.10
2018-11-25T17:59:00.198Z,28.70
2018-11-25T18:01:27.126Z,27.37
2018-11-25T18:03:54.025Z,27.63
2018-11-25T18:06:21.067Z,25.20
2018-11-25T18:08:47.982Z,26.60
2018-11-25T18:11:14.918Z,23.85
2018-11-25T18:13:43.497Z,26.60
2018-11-25T18:16:12.731Z,28.35
2018-11-25T18:18:41.639Z,24.43
2018-11-25T18:21:10.542Z,25.48
2018-11-25T18:23:37.987Z,25.67
2018-11-25T18:26:05.174Z,27.82
2018-11-25T18:28:32.098Z,27.85
2018-11-25T18:30:59.046Z,27.48
2018-11-25T18:33:25.961Z,29.20
2018-11-25T18:35:52.904Z,30.80
2018-11-25T18:38:19.817Z,29.85
2018-11-25T18:40:46.721Z,26.63
2018-11-25T18:43:13.689Z,29.20
2018-11-25T18:45:40.613Z,30.43
2018-11-25T18:48:08.990Z,32.58
2018-11-25T18:50:35.902Z,30.85
2018-11-25T18:53:02.833Z,35.55
2018-11-25T18:55:28.865Z,30.10
2018-11-25T18:57:55.765Z,33.50
2018-11-25T19:00:26.107Z,29.45
2018-11-25T19:02:53.031Z,30.65
2018-11-25T19:05:19.953Z,30.37
2018-11-25T19:07:46.866Z,34.40
2018-11-25T19:10:16.018Z,36.25
2018-11-25T19:12:44.354Z,30.43
2018-11-25T19:15:11.141Z,30.55
2018-11-25T19:17:38.081Z,29.57
2018-11-25T19:20:17.773Z,32.03
2018-11-25T19:22:44.762Z,27.00
2018-11-25T19:25:15.735Z,24.07
2018-11-25T19:27:43.407Z,24.00
2018-11-25T19:30:14.071Z,23.77
2018-11-25T19:32:41.584Z,20.57
2018-11-25T19:35:10.479Z,20.15
2018-11-25T19:37:37.397Z,19.23
2018-11-25T19:40:07.766Z,19.65
2018-11-25T19:42:34.677Z,19.98
2018-11-25T19:45:01.606Z,18.80
2018-11-25T19:47:28.508Z,16.82
2018-11-25T19:49:55.423Z,17.00
2018-11-25T19:52:22.338Z,17.13
2018-11-25T19:54:49.271Z,18.23
2018-11-25T19:57:16.179Z,17.60
2018-11-25T19:59:43.099Z,15.32
2018-11-25T20:02:10.006Z,14.00
2018-11-25T20:04:36.926Z,13.27
2018-11-25T20:07:03.892Z,13.07
2018-11-25T20:09:30.805Z,12.60
2018-11-25T20:11:57.965Z,14.83
2018-11-25T20:14:25.188Z,14.43
2018-11-25T20:16:57.827Z,15.07
2018-11-25T20:19:24.737Z,17.97
2018-11-25T20:21:57.329Z,17.77
2018-11-25T20:24:24.273Z,13.47
2018-11-25T20:26:56.839Z,12.10
2018-11-25T20:29:24.469Z,13.13
2018-11-25T20:31:57.956Z,12.07
2018-11-25T20:34:25.085Z,11.13
2018-11-25T20:36:52.540Z,13.10
2018-11-25T20:39:26.412Z,15.87
2018-11-25T20:41:53.377Z,15.13
2018-11-25T20:44:20.405Z,13.80
2018-11-25T20:46:53.053Z,11.60
2018-11-25T20:49:19.978Z,16.97
2018-11-25T20:51:52.577Z,10.93
2018-11-25T20:54:19.494Z,11.70
2018-11-25T20:56:46.399Z,12.63
2018-11-25T20:59:13.310Z,12.17
2018-11-25T21:01:40.245Z,16.10
2018-11-25T21:04:07.166Z,12.13
2018-11-25T21:06:34.120Z,13.43
2018-11-25T21:09:01.053Z,12.33
2018-11-25T21:11:27.998Z,11.90
2018-11-25T21:13:54.901Z,12.33
2018-11-25T21:16:21.956Z,11.30
2018-11-25T21:18:48.869Z,11.57
2018-11-25T21:21:15.809Z,11.40
2018-11-25T21:23:42.715Z,12.20
2018-11-25T21:26:09.638Z,11.03
2018-11-25T21:28:36.545Z,11.10
2018-11-25T21:31:03.724Z,10.40
2018-11-25T21:33:30.625Z,12.70
2018-11-25T21:35:57.543Z,11.13
2018-11-25T21:38:24.445Z,10.97
2018-11-25T21:40:51.390Z,11.90
2018-11-25T21:43:18.306Z,11.07
2018-11-25T21:45:45.224Z,11.73
2018-11-25T21:48:12.133Z,11.13
2018-11-25T21:50:39.064Z,11.83
2018-11-25T21:53:05.989Z,11.43
2018-11-25T21:55:32.905Z,12.70
2018-11-25T21:57:59.817Z,11.70
2018-11-25T22:00:26.734Z,12.23
2018-11-25T22:02:53.636Z,12.57
2018-11-25T22:05:24.693Z,10.77
2018-11-25T22:07:47.536Z,10.53
2018-11-25T22:10:16.017Z,9.70
2018-11-25T22:12:43.374Z,9.67
2018-11-25T22:15:12.116Z,10.13
2018-11-25T22:17:39.174Z,11.10
2018-11-25T22:20:08.356Z,11.47
2018-11-25T22:22:35.266Z,10.90
2018-11-25T22:25:05.429Z,12.43
2018-11-25T22:27:33.404Z,10.80
2018-11-25T22:30:01.277Z,10.53
2018-11-25T22:32:29.029Z,9.75
2018-11-25T22:34:55.981Z,8.70
2018-11-25T22:37:24.036Z,8.83
2018-11-25T22:39:51.883Z,8.70
2018-11-25T22:42:18.857Z,10.80
2018-11-25T22:44:46.518Z,9.73
2018-11-25T22:47:13.740Z,8.53
2018-11-25T22:49:42.588Z,7.47
2018-11-25T22:52:09.586Z,7.77
2018-11-25T22:54:36.591Z,7.93
2018-11-25T22:57:05.751Z,7.97
2018-11-25T22:59:32.312Z,7.23
2018-11-25T23:01:59.234Z,8.03
2018-11-25T23:04:37.786Z,7.30
2018-11-25T23:07:04.797Z,8.10
2018-11-25T23:09:31.770Z,7.65
2018-11-25T23:11:59.973Z,7.33
2018-11-25T23:14:29.035Z,7.10
2018-11-25T23:16:56.093Z,9.08
2018-11-25T23:19:23.546Z,14.23
2018-11-25T23:21:54.017Z,15.33
2018-11-25T23:24:22.208Z,12.90
2018-11-25T23:26:50.684Z,10.77
2018-11-25T23:29:19.005Z,9.23
2018-11-25T23:31:47.630Z,9.13
2018-11-25T23:34:14.564Z,9.30
2018-11-25T23:36:41.570Z,10.63
2018-11-25T23:39:09.876Z,11.10
2018-11-25T23:41:37.160Z,9.63
2018-11-25T23:44:05.111Z,10.07
2018-11-25T23:46:32.325Z,10.00
2018-11-25T23:48:59.251Z,9.77
2018-11-25T23:51:28.117Z,8.30
2018-11-25T23:53:55.620Z,8.50
2018-11-25T23:56:23.677Z,7.97
2018-11-25T23:58:50.683Z,7.70
